Time;durP1;ratioP1;P1;durP2;ratioP2;P2;SDS_P1;SDS_P2;PMS_P1;PMS_P2;Temp;Humidity;BMP_temperature;BMP_pressure;BME280_temperature;BME280_humidity;BME280_pressure;Samples;Min_cycle;Max_cycle;Signal;HPM_P1;HPM_P2
2023/09/13 00:01:45;;;;;;;16.42;10.48;;;;;;;15.94;100.00;100530.72;5027906;28;20437;-81
2023/09/13 00:04:18;;;;;;;17.98;11.30;;;;;;;15.97;100.00;100529.28;5024805;28;20430;-79
2023/09/13 00:06:53;;;;;;;17.30;11.45;;;;;;;15.98;100.00;100520.72;5022221;28;20423;-79
2023/09/13 00:09:26;;;;;;;18.55;11.25;;;;;;;15.99;100.00;100532.50;5026242;28;20419;-79
2023/09/13 00:11:54;;;;;;;20.20;12.32;;;;;;;16.01;100.00;100524.78;5026509;28;20423;-79
2023/09/13 00:14:27;;;;;;;20.25;12.30;;;;;;;16.05;100.00;100533.97;5042723;28;20423;-80
2023/09/13 00:16:56;;;;;;;26.77;14.68;;;;;;;16.13;100.00;100533.19;5025324;28;20426;-78
2023/09/13 00:19:27;;;;;;;26.00;16.45;;;;;;;16.18;100.00;100532.22;5027203;28;20418;-78
2023/09/13 00:22:02;;;;;;;33.20;18.93;;;;;;;16.26;100.00;100536.09;5027770;28;20427;-78
2023/09/13 00:24:30;;;;;;;31.20;17.45;;;;;;;16.33;100.00;100541.91;5025763;28;20435;-79
2023/09/13 00:26:58;;;;;;;26.70;16.02;;;;;;;16.28;100.00;100539.31;5026134;28;20869;-79
2023/09/13 00:29:33;;;;;;;25.00;14.73;;;;;;;16.25;100.00;100537.22;5042403;28;20424;-79
2023/09/13 00:32:06;;;;;;;29.43;17.07;;;;;;;16.29;100.00;100532.72;5042017;28;20403;-79
2023/09/13 00:34:39;;;;;;;22.88;14.82;;;;;;;16.30;100.00;100532.38;5025909;28;20423;-80
2023/09/13 00:37:14;;;;;;;26.42;15.52;;;;;;;16.31;100.00;100534.00;5025804;28;20419;-78
2023/09/13 00:39:42;;;;;;;25.25;14.80;;;;;;;16.27;100.00;100534.97;5025125;28;20442;-80
2023/09/13 00:42:11;;;;;;;21.65;11.85;;;;;;;16.19;100.00;100520.09;5025864;28;21029;-79
2023/09/13 00:44:44;;;;;;;20.77;11.45;;;;;;;16.26;100.00;100517.69;5040461;28;20438;-79
2023/09/13 00:47:17;;;;;;;20.33;10.73;;;;;;;16.22;100.00;100507.69;5025309;28;20419;-78
2023/09/13 00:49:50;;;;;;;18.03;11.33;;;;;;;16.21;100.00;100511.53;5040907;28;20426;-79
2023/09/13 00:52:26;;;;;;;20.70;12.73;;;;;;;16.20;100.00;100505.25;5026121;28;20430;-79
2023/09/13 00:54:54;;;;;;;23.13;13.18;;;;;;;16.28;100.00;100509.13;5026801;28;20760;-78
2023/09/13 00:57:27;;;;;;;23.07;14.17;;;;;;;16.25;100.00;100513.31;5023970;28;20823;-79
2023/09/13 01:00:02;;;;;;;25.67;13.77;;;;;;;16.25;100.00;100535.28;5022524;28;20446;-80
2023/09/13 01:02:38;;;;;;;24.02;14.07;;;;;;;16.28;100.00;100533.84;5022086;28;20514;-79
2023/09/13 01:05:13;;;;;;;31.98;14.27;;;;;;;16.27;100.00;100537.72;5025300;28;21275;-80
2023/09/13 01:07:49;;;;;;;21.52;12.57;;;;;;;16.27;100.00;100540.47;5026418;28;20411;-79
2023/09/13 01:10:18;;;;;;;22.00;12.85;;;;;;;16.27;100.00;100546.75;5028035;28;20410;-79
2023/09/13 01:12:46;;;;;;;22.80;12.60;;;;;;;16.27;100.00;100540.47;5024112;28;20434;-79
2023/09/13 01:15:20;;;;;;;17.40;11.40;;;;;;;16.27;100.00;100532.25;5026300;28;20434;-81
2023/09/13 01:17:58;;;;;;;19.85;11.30;;;;;;;16.26;100.00;100534.16;5026539;28;20458;-79
2023/09/13 01:20:43;;;;;;;20.60;10.70;;;;;;;16.23;100.00;100529.31;5026689;28;20422;-79
2023/09/13 01:23:30;;;;;;;17.00;11.50;;;;;;;16.34;100.00;100527.06;5027777;28;20423;-80
2023/09/13 01:26:21;;;;;;;18.35;10.18;;;;;;;16.26;100.00;100523.16;5026934;28;20423;-79
2023/09/13 01:28:54;;;;;;;16.75;10.27;;;;;;;16.03;100.00;100521.69;5028956;28;20430;-79
2023/09/13 01:31:28;;;;;;;19.15;10.13;;;;;;;15.92;100.00;100510.22;5042515;28;21056;-79
2023/09/13 01:34:02;;;;;;;16.35;9.20;;;;;;;16.02;100.00;100514.59;5046835;28;20429;-79
2023/09/13 01:36:37;;;;;;;16.25;9.18;;;;;;;16.03;100.00;100521.69;5029590;28;20423;-81
2023/09/13 01:39:10;;;;;;;16.40;9.90;;;;;;;16.02;100.00;100514.59;5030314;28;21046;-80
2023/09/13 01:41:48;;;;;;;17.33;10.00;;;;;;;16.03;100.00;100524.44;5028587;28;20427;-79
2023/09/13 01:44:23;;;;;;;19.55;11.25;;;;;;;16.02;100.00;100517.34;5028734;28;20427;-79
2023/09/13 01:46:57;;;;;;;19.67;11.95;;;;;;;16.00;100.00;100514.91;5043469;28;20445;-79
2023/09/13 01:49:32;;;;;;;19.75;12.25;;;;;;;16.04;100.00;100526.88;5030396;28;20450;-80
2023/09/13 01:52:06;;;;;;;20.58;12.27;;;;;;;16.02;100.00;100518.16;5031636;28;20429;-81
2023/09/13 01:54:35;;;;;;;21.33;12.53;;;;;;;15.97;100.00;100521.84;5029398;28;20419;-81
2023/09/13 01:57:08;;;;;;;23.38;12.52;;;;;;;15.92;100.00;100511.03;5029710;28;20435;-80
2023/09/13 01:59:38;;;;;;;23.10;12.52;;;;;;;15.89;100.00;100517.16;5029619;28;20983;-79
2023/09/13 02:02:11;;;;;;;19.40;12.50;;;;;;;15.86;100.00;100511.50;5044271;28;20426;-80
2023/09/13 02:04:44;;;;;;;30.13;12.52;;;;;;;15.85;100.00;100518.91;5045186;28;20431;-80
2023/09/13 02:07:17;;;;;;;37.78;12.70;;;;;;;15.86;100.00;100511.50;5026296;28;20430;-80
2023/09/13 02:09:52;;;;;;;33.27;12.97;;;;;;;15.90;100.00;100505.03;5028331;28;20468;-79
2023/09/13 02:12:25;;;;;;;37.67;13.65;;;;;;;15.86;100.00;100501.31;5028979;28;20434;-80
2023/09/13 02:14:59;;;;;;;28.50;13.10;;;;;;;15.89;100.00;100505.38;5027243;28;20776;-80
2023/09/13 02:17:33;;;;;;;38.38;12.73;;;;;;;15.88;100.00;100499.09;5027859;28;20431;-80
2023/09/13 02:20:07;;;;;;;34.45;13.60;;;;;;;15.99;100.00;100507.78;5022348;28;20430;-81
2023/09/13 02:22:40;;;;;;;39.30;12.85;;;;;;;15.94;100.00;100497.78;5045168;28;20511;-79
2023/09/13 02:25:14;;;;;;;30.13;13.23;;;;;;;15.93;100.00;100495.38;5025729;28;20430;-79
2023/09/13 02:27:47;;;;;;;27.92;13.38;;;;;;;15.97;100.00;100499.88;5028440;28;20426;-79
2023/09/13 02:30:17;;;;;;;30.23;13.55;;;;;;;16.00;100.00;100492.94;5045242;28;21170;-79
2023/09/13 02:32:50;;;;;;;42.50;14.77;;;;;;;15.96;100.00;100483.75;5028360;28;20427;-79
2023/09/13 02:35:23;;;;;;;48.38;15.02;;;;;;;16.08;100.00;100486.66;5030573;28;20423;-80
2023/09/13 02:37:57;;;;;;;109.13;15.90;;;;;;;16.10;100.00;100478.09;5026303;28;20431;-80
2023/09/13 02:40:30;;;;;;;72.25;15.60;;;;;;;16.18;100.00;100473.75;5027210;28;20445;-80
2023/09/13 02:43:03;;;;;;;41.90;16.20;;;;;;;16.09;100.00;100473.75;5026942;28;20775;-81
2023/09/13 02:45:33;;;;;;;71.40;16.65;;;;;;;16.15;100.00;100467.78;5028087;28;20418;-79
2023/09/13 02:48:02;;;;;;;47.28;16.05;;;;;;;16.33;100.00;100463.06;5029572;28;20897;-79
2023/09/13 02:50:30;;;;;;;63.67;16.73;;;;;;;16.39;100.00;100460.19;5030344;28;20411;-80
2023/09/13 02:53:03;;;;;;;83.85;16.20;;;;;;;16.28;100.00;100455.03;5027107;28;20425;-79
2023/09/13 02:55:32;;;;;;;71.40;17.10;;;;;;;16.34;100.00;100452.91;5027429;28;20438;-79
2023/09/13 02:58:05;;;;;;;31.45;15.55;;;;;;;16.29;100.00;100453.06;5028761;28;20438;-80
2023/09/13 03:00:35;;;;;;;42.67;16.35;;;;;;;16.31;100.00;100456.31;5029479;28;20419;-80
2023/09/13 03:03:08;;;;;;;34.30;17.38;;;;;;;16.34;100.00;100447.44;5028071;28;20423;-80
2023/09/13 03:05:37;;;;;;;29.65;16.42;;;;;;;16.30;100.00;100443.72;5024087;28;20438;-80
2023/09/13 03:08:10;;;;;;;36.37;17.63;;;;;;;16.27;100.00;100438.88;5044282;28;20423;-81
2023/09/13 03:10:43;;;;;;;35.80;17.30;;;;;;;16.45;100.00;100437.72;5027116;28;20874;-80
2023/09/13 03:13:17;;;;;;;31.52;17.42;;;;;;;16.48;100.00;100431.56;5027559;28;20430;-80
2023/09/13 03:15:51;;;;;;;29.88;16.55;;;;;;;16.51;100.00;100432.06;5025911;28;20431;-81
2023/09/13 03:18:24;;;;;;;31.27;17.08;;;;;;;16.51;100.00;100424.63;5041794;28;20420;-81
2023/09/13 03:20:57;;;;;;;30.77;16.60;;;;;;;16.47;100.00;100429.16;5027117;28;20430;-80
2023/09/13 03:23:32;;;;;;;35.25;17.52;;;;;;;16.64;100.00;100428.28;5042049;28;20923;-81
2023/09/13 03:26:12;;;;;;;33.93;16.57;;;;;;;16.56;100.00;100424.44;5026651;28;20431;-80
2023/09/13 03:28:46;;;;;;;29.63;16.50;;;;;;;16.80;100.00;100423.88;5027043;28;20434;-80
2023/09/13 03:31:23;;;;;;;30.70;16.50;;;;;;;16.67;100.00;100424.91;5026751;28;20422;-80
2023/09/13 03:34:00;;;;;;;33.10;17.27;;;;;;;16.68;100.00;100418.25;5027112;28;20415;-80
2023/09/13 03:36:35;;;;;;;32.17;16.05;;;;;;;16.78;100.00;100408.88;5029404;28;20419;-80
2023/09/13 03:39:03;;;;;;;29.58;16.27;;;;;;;16.69;100.00;100417.13;5044213;28;20419;-79
2023/09/13 03:41:37;;;;;;;31.77;16.38;;;;;;;16.76;100.00;100411.13;5024980;28;20937;-80
2023/09/13 03:44:10;;;;;;;33.83;16.30;;;;;;;16.67;100.00;100402.94;5027945;28;20429;-83
2023/09/13 03:46:44;;;;;;;32.13;16.80;;;;;;;16.66;100.00;100409.56;5028810;28;20421;-84
2023/09/13 03:49:13;;;;;;;28.52;15.80;;;;;;;16.64;100.00;100415.38;5025023;28;20438;-84
2023/09/13 03:51:46;;;;;;;31.67;16.30;;;;;;;16.61;100.00;100406.97;5028676;28;20518;-84
2023/09/13 03:54:20;;;;;;;31.13;15.50;;;;;;;16.62;100.00;100403.09;5027201;28;20419;-85
2023/09/13 03:56:48;;;;;;;27.00;14.63;;;;;;;16.66;100.00;100406.81;5023756;28;20430;-84
2023/09/13 03:59:17;;;;;;;26.50;14.67;;;;;;;16.78;100.00;100406.13;5042829;28;20522;-84
2023/09/13 04:01:51;;;;;;;28.48;14.73;;;;;;;16.66;100.00;100409.56;5026735;28;20929;-84
2023/09/13 04:04:24;;;;;;;31.20;15.55;;;;;;;16.59;100.00;100412.81;5024713;28;20442;-83
2023/09/13 04:06:58;;;;;;;31.95;14.80;;;;;;;16.64;100.00;100412.63;5024422;28;20427;-83
2023/09/13 04:09:32;;;;;;;32.00;15.15;;;;;;;16.68;100.00;100418.25;5038686;28;20431;-83
2023/09/13 04:12:06;;;;;;;31.33;14.27;;;;;;;16.72;100.00;100416.47;5041825;28;20433;-84
2023/09/13 04:14:34;;;;;;;29.02;14.57;;;;;;;16.70;100.00;100416.00;5024543;28;20435;-84
2023/09/13 04:17:09;;;;;;;30.75;14.45;;;;;;;16.74;100.00;100410.69;5026850;28;20430;-84
2023/09/13 04:19:42;;;;;;;30.77;14.02;;;;;;;16.73;100.00;100409.06;5040536;28;20768;-83
2023/09/13 04:22:16;;;;;;;29.85;14.40;;;;;;;16.89;100.00;100406.59;5024768;28;20427;-83
2023/09/13 04:24:49;;;;;;;29.27;13.77;;;;;;;16.81;100.00;100410.97;5024672;28;20430;-84
2023/09/13 04:27:23;;;;;;;30.58;14.40;;;;;;;16.72;100.00;100410.19;5026063;28;20884;-83
2023/09/13 04:29:56;;;;;;;30.23;14.43;;;;;;;16.74;100.00;100418.91;5042524;28;20434;-83
2023/09/13 04:32:33;;;;;;;30.13;14.27;;;;;;;16.76;100.00;100416.63;5026931;28;20485;-83
2023/09/13 04:35:07;;;;;;;29.55;14.05;;;;;;;16.92;100.00;100416.94;5023991;28;20423;-84
2023/09/13 04:37:36;;;;;;;29.43;13.77;;;;;;;16.84;100.00;100418.56;5026069;28;20423;-83
2023/09/13 04:40:11;;;;;;;28.67;14.07;;;;;;;16.88;100.00;100415.97;5024342;28;20435;-83
2023/09/13 04:42:56;;;;;;;25.58;13.70;;;;;;;16.90;100.00;100417.25;5026240;28;20842;-83
2023/09/13 04:45:29;;;;;;;24.40;12.80;;;;;;;16.84;100.00;100421.28;5039875;28;20427;-83
2023/09/13 04:48:06;;;;;;;28.60;12.93;;;;;;;16.94;100.00;100422.91;5027588;28;20419;-82
2023/09/13 04:50:34;;;;;;;27.90;12.60;;;;;;;16.86;100.00;100424.50;5024542;28;20426;-83
2023/09/13 04:53:07;;;;;;;25.85;12.63;;;;;;;16.79;100.00;100426.97;5026866;28;20427;-84
2023/09/13 04:55:44;;;;;;;27.67;11.93;;;;;;;16.85;100.00;100428.41;5025050;28;20427;-83
2023/09/13 04:58:17;;;;;;;25.17;11.43;;;;;;;16.83;100.00;100433.41;5023869;28;20791;-83
2023/09/13 05:00:52;;;;;;;25.17;10.00;;;;;;;16.88;100.00;100440.69;5018860;28;20431;-82
2023/09/13 05:03:27;;;;;;;19.58;9.55;;;;;;;16.87;100.00;100439.06;5020205;28;20430;-83
2023/09/13 05:06:00;;;;;;;16.60;8.20;;;;;;;16.89;100.00;100442.31;5027238;28;20434;-83
2023/09/13 05:08:33;;;;;;;16.77;8.10;;;;;;;16.84;100.00;100446.03;5030298;28;20427;-83
2023/09/13 05:11:06;;;;;;;17.55;8.38;;;;;;;16.75;100.00;100451.56;5029833;28;20422;-83
2023/09/13 05:13:41;;;;;;;19.55;7.97;;;;;;;16.89;100.00;100456.06;5029033;28;22862;-84
2023/09/13 05:16:19;;;;;;;16.95;7.65;;;;;;;16.92;100.00;100455.44;5030637;28;20426;-84
2023/09/13 05:18:53;;;;;;;14.68;6.82;;;;;;;17.08;100.00;100456.50;5031396;28;20427;-83
2023/09/13 05:21:26;;;;;;;11.93;6.28;;;;;;;16.92;100.00;100466.44;5027507;28;20439;-83
2023/09/13 05:23:59;;;;;;;12.70;6.35;;;;;;;16.71;100.00;100458.84;5046143;28;20422;-83
2023/09/13 05:26:28;;;;;;;13.02;6.93;;;;;;;16.89;100.00;100467.06;5028449;28;20907;-83
2023/09/13 05:28:56;;;;;;;11.75;6.32;;;;;;;16.76;100.00;100468.84;5026606;28;20435;-84
2023/09/13 05:31:29;;;;;;;9.75;5.30;;;;;;;16.65;100.00;100463.72;5028244;28;20449;-83
2023/09/13 05:34:04;;;;;;;11.05;5.40;;;;;;;16.51;100.00;100470.50;5029720;28;20441;-82
2023/09/13 05:36:37;;;;;;;13.18;4.60;;;;;;;16.34;100.00;100472.13;5025943;28;20442;-83
2023/09/13 05:39:10;;;;;;;9.27;4.50;;;;;;;16.46;100.00;100471.47;5029932;28;20436;-84
2023/09/13 05:41:44;;;;;;;10.40;4.50;;;;;;;16.55;100.00;100474.22;5031361;28;20427;-84
2023/09/13 05:44:19;;;;;;;8.85;4.32;;;;;;;16.33;100.00;100476.81;5029357;28;20430;-83
2023/09/13 05:46:52;;;;;;;8.40;4.25;;;;;;;16.37;100.00;100479.72;5028442;28;20430;-82
2023/09/13 05:49:27;;;;;;;8.55;4.00;;;;;;;16.42;100.00;100481.50;5028807;28;20450;-83
2023/09/13 05:51:56;;;;;;;10.85;4.20;;;;;;;16.41;100.00;100486.19;5030151;28;20415;-85
2023/09/13 05:54:24;;;;;;;8.13;4.00;;;;;;;16.28;100.00;100493.47;5025336;28;20450;-84
2023/09/13 05:56:57;;;;;;;7.05;3.58;;;;;;;16.14;100.00;100496.38;5026823;28;20438;-83
2023/09/13 05:59:35;;;;;;;9.98;3.97;;;;;;;16.13;100.00;100500.25;5028034;28;20419;-83
2023/09/13 06:02:08;;;;;;;8.02;3.92;;;;;;;16.03;100.00;100505.22;5018110;28;20431;-82
2023/09/13 06:04:43;;;;;;;8.10;4.07;;;;;;;16.11;100.00;100504.44;5029212;28;20430;-82
2023/09/13 06:07:11;;;;;;;7.97;3.90;;;;;;;16.01;100.00;100513.78;5025817;28;20427;-84
2023/09/13 06:09:44;;;;;;;8.57;4.37;;;;;;;15.79;100.00;100514.69;5027694;28;20427;-83
2023/09/13 06:12:12;;;;;;;11.27;4.60;;;;;;;15.76;100.00;100509.84;5026574;28;20427;-83
2023/09/13 06:14:41;;;;;;;9.02;4.43;;;;;;;15.76;100.00;100521.63;5026557;28;20889;-84
2023/09/13 06:17:14;;;;;;;9.23;4.13;;;;;;;15.64;100.00;100522.22;5028124;28;20419;-83
2023/09/13 06:19:48;;;;;;;8.77;3.60;;;;;;;15.69;100.00;100518.53;5042000;28;20431;-83
2023/09/13 06:22:17;;;;;;;9.07;3.60;;;;;;;15.51;100.00;100523.16;5026671;28;21264;-83
2023/09/13 06:24:51;;;;;;;6.85;3.40;;;;;;;15.50;100.00;100520.72;5027848;28;20419;-84
2023/09/13 06:27:24;;;;;;;6.22;3.38;;;;;;;15.47;100.00;100527.66;5026262;28;20779;-83
2023/09/13 06:29:57;;;;;;;7.97;2.97;;;;;;;15.44;100.00;100531.84;5027253;28;20419;-83
2023/09/13 06:32:31;;;;;;;9.55;3.17;;;;;;;15.52;100.00;100532.97;5027365;28;20446;-82
2023/09/13 06:35:10;;;;;;;8.85;3.13;;;;;;;15.45;100.00;100527.97;5028447;28;20431;-84
2023/09/13 06:37:38;;;;;;;5.75;2.80;;;;;;;15.40;100.00;100527.31;5024414;28;20446;-83
2023/09/13 06:40:12;;;;;;;6.35;2.78;;;;;;;15.46;100.00;100526.81;5026544;28;20426;-84
2023/09/13 06:42:40;;;;;;;6.40;2.90;;;;;;;15.39;100.00;100528.44;5027192;28;20423;-83
2023/09/13 06:45:13;;;;;;;5.55;2.80;;;;;;;15.44;100.00;100529.09;5027966;28;20430;-83
2023/09/13 06:47:47;;;;;;;8.20;2.88;;;;;;;15.39;100.00;100536.66;5027712;28;20437;-81
2023/09/13 06:50:17;;;;;;;7.57;2.83;;;;;;;15.36;100.00;100538.09;5025905;28;20442;-82
2023/09/13 06:52:50;;;;;;;6.70;2.80;;;;;;;15.16;100.00;100547.66;5026752;28;20431;-81
2023/09/13 06:55:23;;;;;;;6.05;2.63;;;;;;;15.21;100.00;100560.44;5024171;28;20423;-83
2023/09/13 06:57:56;;;;;;;4.10;2.10;;;;;;;15.26;100.00;100552.06;5019005;28;20467;-81
2023/09/13 07:00:29;;;;;;;6.55;2.08;;;;;;;15.34;100.00;100555.97;5026555;28;20926;-84
2023/09/13 07:03:04;;;;;;;6.15;1.88;;;;;;;15.21;100.00;100565.91;5025201;28;20442;-82
2023/09/13 07:05:39;;;;;;;3.77;1.70;;;;;;;15.19;100.00;100562.66;5023916;28;20439;-81
2023/09/13 07:08:07;;;;;;;3.92;1.90;;;;;;;15.21;100.00;100563.97;5023946;28;20427;-84
2023/09/13 07:10:35;;;;;;;4.15;1.80;;;;;;;15.18;100.00;100564.59;5021566;28;20436;-82
2023/09/13 07:13:08;;;;;;;4.95;1.60;;;;;;;15.23;100.00;100571.88;5036919;28;20508;-83
2023/09/13 07:15:42;;;;;;;3.50;1.50;;;;;;;15.32;100.00;100563.72;5023176;28;20434;-85
2023/09/13 07:18:15;;;;;;;3.72;1.58;;;;;;;15.30;100.00;100569.50;5025034;28;20442;-83
2023/09/13 07:20:46;;;;;;;3.63;1.50;;;;;;;15.20;100.00;100580.75;5009921;28;20442;-82
2023/09/13 07:23:18;;;;;;;3.17;1.20;;;;;;;15.14;100.00;100583.59;5022007;28;20438;-83
2023/09/13 07:25:51;;;;;;;2.80;1.20;;;;;;;15.06;100.00;100580.81;5021995;28;20785;-81
2023/09/13 07:28:24;;;;;;;1.33;0.93;;;;;;;15.10;100.00;100590.84;5024373;28;20426;-81
2023/09/13 07:30:58;;;;;;;1.60;0.80;;;;;;;15.13;100.00;100600.38;5021890;28;21692;-82
2023/09/13 07:33:26;;;;;;;1.60;0.80;;;;;;;15.12;100.00;100591.34;5020012;28;20484;-82
2023/09/13 07:36:00;;;;;;;3.35;0.90;;;;;;;15.17;100.00;100598.63;5022815;28;20446;-82
2023/09/13 07:38:34;;;;;;;1.83;0.90;;;;;;;15.22;100.00;100601.25;5022893;28;20446;-82
2023/09/13 07:41:07;;;;;;;1.92;0.90;;;;;;;15.06;100.00;100602.75;5019347;28;20489;-81
2023/09/13 07:43:41;;;;;;;2.15;0.80;;;;;;;14.96;100.00;100609.28;5019980;28;20442;-80
2023/09/13 07:46:14;;;;;;;0.52;0.50;;;;;;;14.98;100.00;100611.72;5025041;28;20921;-84
2023/09/13 07:48:47;;;;;;;2.45;0.70;;;;;;;15.15;100.00;100617.31;4979472;28;20487;-84
2023/09/13 07:51:17;;;;;;;1.25;0.60;;;;;;;14.92;100.00;100622.00;5011023;28;20435;-83
2023/09/13 07:53:45;;;;;;;0.60;0.40;;;;;;;14.81;100.00;100626.09;5008388;28;20438;-83
2023/09/13 07:56:18;;;;;;;0.95;0.50;;;;;;;14.91;100.00;100628.59;5009462;28;20454;-82
2023/09/13 07:58:51;;;;;;;2.13;0.50;;;;;;;14.77;100.00;100637.66;5001705;28;20484;-86
2023/09/13 08:01:25;;;;;;;1.50;0.50;;;;;;;14.75;100.00;100634.41;5010093;28;20426;-87
2023/09/13 08:03:58;;;;;;;0.57;0.40;;;;;;;14.89;100.00;100636.31;5007929;28;20431;-87
2023/09/13 08:06:27;;;;;;;0.70;0.50;;;;;;;14.73;100.00;100642.13;5008000;28;20915;-84
2023/09/13 08:08:58;;;;;;;1.17;0.60;;;;;;;14.75;100.00;100648.13;5005362;28;20450;-87
2023/09/13 08:11:28;;;;;;;3.50;0.50;;;;;;;14.41;100.00;100652.09;4998868;28;20813;-84
2023/09/13 08:14:03;;;;;;;0.68;0.50;;;;;;;14.56;100.00;100659.19;5004174;28;20423;-86
2023/09/13 08:16:36;;;;;;;1.13;0.43;;;;;;;14.55;100.00;100663.03;5004755;28;20435;-86
2023/09/13 08:19:04;;;;;;;0.82;0.50;;;;;;;14.58;100.00;100659.69;5018649;28;20435;-84
2023/09/13 08:21:41;;;;;;;1.10;0.60;;;;;;;14.60;100.00;100657.44;5006114;28;20439;-84
2023/09/13 08:24:14;;;;;;;2.50;0.85;;;;;;;14.53;100.00;100670.75;4995219;28;20438;-84
2023/09/13 08:26:42;;;;;;;2.03;0.93;;;;;;;14.58;100.00;100667.09;4997679;28;21137;-84
2023/09/13 08:29:16;;;;;;;2.95;1.17;;;;;;;14.44;100.00;100678.06;4996808;28;20435;-84
2023/09/13 08:31:44;;;;;;;4.05;1.23;;;;;;;14.62;100.00;100673.56;4997761;28;20439;-83
2023/09/13 08:34:17;;;;;;;5.07;1.80;;;;;;;14.57;100.00;100687.38;5002743;28;21772;-83
2023/09/13 08:36:46;;;;;;;4.35;2.00;;;;;;;14.48;100.00;100686.50;5001277;28;21247;-83
2023/09/13 08:39:19;;;;;;;4.72;2.00;;;;;;;14.51;100.00;100689.41;5011388;28;20435;-83
2023/09/13 08:41:50;;;;;;;5.70;2.10;;;;;;;14.50;100.00;100698.75;4999166;28;21152;-83
2023/09/13 08:44:23;;;;;;;4.60;2.20;;;;;;;14.58;100.00;100698.03;5006410;28;20446;-84
2023/09/13 08:46:59;;;;;;;7.25;2.30;;;;;;;14.67;100.00;100694.63;5000724;28;20427;-84
2023/09/13 08:49:35;;;;;;;6.20;2.40;;;;;;;14.68;100.00;100701.69;4983436;28;20512;-84
2023/09/13 08:52:11;;;;;;;8.00;2.50;;;;;;;14.56;100.00;100708.47;4998617;28;21189;-84
2023/09/13 08:54:39;;;;;;;5.78;2.28;;;;;;;14.51;100.00;100713.25;5015888;28;20435;-81
2023/09/13 08:57:13;;;;;;;5.07;2.38;;;;;;;14.50;100.00;100722.56;4997249;28;20431;-82
2023/09/13 08:59:48;;;;;;;6.68;2.10;;;;;;;14.46;100.00;100720.47;4999697;28;20426;-85
2023/09/13 09:02:23;;;;;;;5.68;2.00;;;;;;;14.42;100.00;100715.91;5000477;28;20431;-83
2023/09/13 09:04:57;;;;;;;6.32;2.45;;;;;;;14.38;100.00;100725.84;5005831;28;20445;-85
2023/09/13 09:07:28;;;;;;;7.20;2.47;;;;;;;14.38;100.00;100729.38;4999940;28;20518;-82
2023/09/13 09:10:08;;;;;;;6.23;2.23;;;;;;;14.46;100.00;100727.88;4998394;28;20435;-84
2023/09/13 09:12:45;;;;;;;5.93;2.40;;;;;;;14.29;100.00;100731.19;4994214;28;21793;-81
2023/09/13 09:15:20;;;;;;;8.80;2.47;;;;;;;14.24;100.00;100734.84;4996159;28;20434;-82
2023/09/13 09:17:55;;;;;;;6.78;2.40;;;;;;;14.42;100.00;100735.88;4995037;28;20434;-83
2023/09/13 09:20:28;;;;;;;6.00;2.20;;;;;;;14.42;100.00;100741.34;5000023;28;20427;-83
2023/09/13 09:23:03;;;;;;;8.75;2.35;;;;;;;14.49;100.00;100732.72;4999088;28;20434;-83
2023/09/13 09:25:39;;;;;;;7.35;2.55;;;;;;;14.51;100.00;100746.13;4994331;28;20446;-83
2023/09/13 09:28:12;;;;;;;7.93;2.40;;;;;;;14.62;100.00;100744.78;4997989;28;21331;-82
2023/09/13 09:30:45;;;;;;;10.18;2.83;;;;;;;14.60;100.00;100747.03;5002162;28;20458;-81
2023/09/13 09:33:26;;;;;;;9.18;2.50;;;;;;;14.62;100.00;100750.25;5000125;28;20423;-83
2023/09/13 09:36:01;;;;;;;8.02;2.65;;;;;;;14.67;100.00;100747.47;4999241;28;20536;-84
2023/09/13 09:38:35;;;;;;;11.07;2.78;;;;;;;14.57;100.00;100751.19;4997558;28;20442;-82
2023/09/13 09:41:06;;;;;;;8.30;2.58;;;;;;;14.55;100.00;100747.94;4994234;28;20439;-82
2023/09/13 09:43:36;;;;;;;8.15;2.75;;;;;;;14.60;100.00;100758.78;4996664;28;20450;-82
2023/09/13 09:46:04;;;;;;;9.13;2.90;;;;;;;14.70;100.00;100754.25;4992526;28;20426;-81
2023/09/13 09:48:37;;;;;;;10.88;3.03;;;;;;;14.57;100.00;100764.06;4969060;28;20481;-82
2023/09/13 09:51:05;;;;;;;11.85;3.33;;;;;;;14.60;100.00;100763.47;5011954;28;20442;-82
2023/09/13 09:53:40;;;;;;;11.00;3.05;;;;;;;14.60;100.00;100757.97;4994935;28;20435;-82
2023/09/13 09:56:14;;;;;;;9.45;2.83;;;;;;;14.73;100.00;100746.22;4996830;28;21181;-82
2023/09/13 09:58:47;;;;;;;8.23;2.80;;;;;;;14.86;100.00;100755.56;4995029;28;20427;-82
2023/09/13 10:01:21;;;;;;;13.70;2.90;;;;;;;14.75;100.00;100757.69;4996022;28;20434;-81
2023/09/13 10:03:58;;;;;;;9.43;2.92;;;;;;;14.73;100.00;100759.91;4995051;28;20442;-82
2023/09/13 10:06:26;;;;;;;11.05;3.10;;;;;;;14.84;100.00;100751.50;5011945;28;20450;-82
2023/09/13 10:09:01;;;;;;;13.53;3.07;;;;;;;14.86;100.00;100755.56;4997282;28;20441;-81
2023/09/13 10:11:34;;;;;;;10.90;3.03;;;;;;;14.90;100.00;100762.03;5005932;28;20435;-82
2023/09/13 10:14:07;;;;;;;14.18;3.10;;;;;;;15.08;100.00;100751.22;5000708;28;20447;-82
2023/09/13 10:16:41;;;;;;;13.20;2.85;;;;;;;15.20;100.00;100758.94;4996628;28;20434;-82
2023/09/13 10:19:11;;;;;;;12.27;2.90;;;;;;;14.99;100.00;100770.34;4994104;28;20431;-82
2023/09/13 10:21:45;;;;;;;12.93;2.70;;;;;;;14.95;100.00;100764.66;4994662;28;20434;-84
2023/09/13 10:24:23;;;;;;;14.63;2.78;;;;;;;14.93;100.00;100769.66;5002302;28;20434;-84
2023/09/13 10:26:57;;;;;;;8.73;2.50;;;;;;;14.91;100.00;100780.09;4999228;28;20466;-84
2023/09/13 10:29:35;;;;;;;10.90;3.03;;;;;;;14.96;100.00;100793.69;4999412;28;20431;-84
2023/09/13 10:32:12;;;;;;;9.98;2.50;;;;;;;14.81;100.00;100798.69;5001174;28;20423;-85
2023/09/13 10:34:49;;;;;;;12.18;3.15;;;;;;;14.94;100.00;100790.47;5002388;28;20453;-85
2023/09/13 10:37:31;;;;;;;13.10;3.03;;;;;;;14.98;100.00;100798.06;5014068;28;20532;-84
2023/09/13 10:40:10;;;;;;;13.20;3.00;;;;;;;15.05;100.00;100802.00;5000273;28;20431;-82
2023/09/13 10:42:44;;;;;;;11.50;2.80;;;;;;;14.92;100.00;100806.38;5001247;28;20934;-84
2023/09/13 10:45:22;;;;;;;13.57;3.30;;;;;;;15.03;100.00;100804.22;4997702;28;20415;-83
2023/09/13 10:47:58;;;;;;;13.17;2.97;;;;;;;15.11;100.00;100799.97;4972144;28;20441;-83
2023/09/13 10:50:27;;;;;;;13.63;2.90;;;;;;;14.95;100.00;100805.75;4996023;28;20422;-83
2023/09/13 10:53:00;;;;;;;8.88;2.40;;;;;;;15.14;100.00;100810.31;5001280;28;20434;-82
2023/09/13 10:55:35;;;;;;;14.02;2.58;;;;;;;14.90;100.00;100805.06;4987117;28;20430;-82
2023/09/13 10:58:10;;;;;;;15.75;2.85;;;;;;;14.96;100.00;100806.59;4994364;28;21376;-83
2023/09/13 11:00:45;;;;;;;14.60;2.90;;;;;;;14.99;100.00;100813.38;4998417;28;20578;-84
2023/09/13 11:03:19;;;;;;;15.10;2.60;;;;;;;15.01;100.00;100811.13;4987891;28;20428;-81
2023/09/13 11:05:51;;;;;;;12.20;3.28;;;;;;;14.90;100.00;100814.09;4995716;28;20509;-82
2023/09/13 11:08:30;;;;;;;13.10;2.85;;;;;;;15.03;100.00;100823.41;5009478;28;20443;-83
2023/09/13 11:11:16;;;;;;;10.10;2.80;;;;;;;15.15;100.00;100817.44;5001222;28;20435;-83
2023/09/13 11:13:53;;;;;;;13.57;2.67;;;;;;;15.17;100.00;100820.66;4992491;28;20443;-83
2023/09/13 11:16:26;;;;;;;11.25;2.75;;;;;;;15.27;100.00;100825.09;4995393;28;20799;-82
2023/09/13 11:19:03;;;;;;;13.30;2.80;;;;;;;15.38;100.00;100822.94;4998666;28;20431;-83
2023/09/13 11:21:47;;;;;;;12.30;2.60;;;;;;;15.29;100.00;100826.41;4998203;28;20415;-82
2023/09/13 11:24:41;;;;;;;8.63;2.45;;;;;;;15.38;100.00;100828.44;5002526;28;20438;-82
2023/09/13 11:27:16;;;;;;;9.85;2.45;;;;;;;15.35;100.00;100840.81;5000211;28;20435;-81
2023/09/13 11:29:50;;;;;;;8.33;2.33;;;;;;;15.33;100.00;100856.78;5002306;28;20431;-82
2023/09/13 11:32:29;;;;;;;9.45;2.58;;;;;;;15.35;100.00;100849.06;4991483;28;20933;-82
2023/09/13 11:35:03;;;;;;;11.23;2.75;;;;;;;15.34;100.00;100869.34;4993067;28;20431;-81
2023/09/13 11:37:33;;;;;;;10.65;2.40;;;;;;;15.26;100.00;100870.09;4994166;28;22207;-83